createdAt,value
2022-12-23T00:01:23.282Z,46.90
2022-12-23T00:03:51.749Z,51.50
2022-12-23T00:06:20.489Z,48.10
2022-12-23T00:08:48.362Z,42.95
2022-12-23T00:11:19.047Z,50.65
2022-12-23T00:14:06.216Z,45.65
2022-12-23T00:16:37.405Z,46.33
2022-12-23T00:19:06.134Z,49.42
2022-12-23T00:21:34.016Z,48.30
2022-12-23T00:24:02.016Z,42.85
2022-12-23T00:26:29.863Z,48.67
2022-12-23T00:28:58.879Z,44.28
2022-12-23T00:31:26.888Z,44.55
2022-12-23T00:33:54.878Z,42.88
2022-12-23T00:36:28.532Z,48.95
2022-12-23T00:39:16.592Z,51.15
2022-12-23T00:42:02.903Z,45.20
2022-12-23T00:44:31.322Z,46.42
2022-12-23T00:47:00.399Z,45.63
2022-12-23T00:49:43.382Z,51.17
2022-12-23T00:52:13.947Z,44.80
2022-12-23T00:54:42.157Z,50.58
2022-12-23T00:57:10.412Z,50.90
2022-12-23T00:59:38.360Z,54.20
2022-12-23T01:02:24.595Z,55.30
2022-12-23T01:05:11.291Z,54.92
2022-12-23T01:07:39.150Z,55.40
2022-12-23T01:10:07.404Z,54.22
2022-12-23T01:12:35.186Z,56.00
2022-12-23T01:15:03.011Z,56.95
2022-12-23T01:17:30.914Z,53.38
2022-12-23T01:19:58.848Z,62.03
2022-12-23T01:22:26.660Z,53.90
2022-12-23T01:24:54.528Z,55.40
2022-12-23T01:27:22.369Z,49.80
2022-12-23T01:29:50.221Z,50.30
2022-12-23T01:32:18.060Z,55.63
2022-12-23T01:34:45.800Z,53.25
2022-12-23T01:37:13.546Z,46.85
2022-12-23T01:39:41.417Z,46.80
2022-12-23T01:42:35.805Z,49.15
2022-12-23T01:45:18.243Z,50.30
2022-12-23T01:48:00.742Z,43.10
2022-12-23T01:50:37.068Z,40.85
2022-12-23T01:53:20.552Z,47.45
2022-12-23T01:56:05.421Z,46.33
2022-12-23T01:58:50.790Z,42.63
2022-12-23T02:01:38.284Z,39.65
2022-12-23T02:04:09.941Z,40.58
2022-12-23T02:06:59.123Z,41.47
2022-12-23T02:09:34.470Z,36.58
2022-12-23T02:12:11.229Z,33.17
2022-12-23T02:15:18.539Z,36.13
2022-12-23T02:18:02.234Z,32.10
2022-12-23T02:20:51.574Z,29.23
2022-12-23T02:23:53.565Z,33.35
2022-12-23T02:26:42.933Z,30.15
2022-12-23T02:29:29.632Z,29.75
2022-12-23T02:32:00.161Z,34.72
2022-12-23T02:34:42.227Z,28.85
2022-12-23T02:37:25.340Z,32.47
2022-12-23T02:40:11.134Z,32.45
2022-12-23T02:42:45.535Z,26.35
2022-12-23T02:45:27.674Z,25.50
2022-12-23T02:48:00.670Z,28.98
2022-12-23T02:50:33.243Z,27.10
2022-12-23T02:53:09.596Z,32.40
2022-12-23T02:55:40.803Z,23.90
2022-12-23T02:58:13.151Z,26.40
2022-12-23T03:00:43.271Z,28.40
2022-12-23T03:03:11.549Z,26.60
2022-12-23T03:05:43.120Z,36.92
2022-12-23T03:08:27.222Z,28.80
2022-12-23T03:11:13.489Z,34.13
2022-12-23T03:13:47.145Z,27.25
2022-12-23T03:16:27.739Z,28.48
2022-12-23T03:19:00.854Z,31.23
2022-12-23T03:21:37.853Z,28.85
2022-12-23T03:24:30.020Z,27.95
2022-12-23T03:27:01.091Z,30.02
2022-12-23T03:30:08.406Z,23.60
2022-12-23T03:32:43.323Z,27.05
2022-12-23T03:35:15.977Z,29.40
2022-12-23T03:37:47.619Z,26.08
2022-12-23T03:40:22.879Z,23.95
2022-12-23T03:42:58.961Z,22.92
2022-12-23T03:45:41.503Z,23.10
2022-12-23T03:48:51.403Z,20.33
2022-12-23T03:51:26.761Z,27.65
2022-12-23T03:54:03.439Z,27.23
2022-12-23T03:56:35.634Z,25.05
2022-12-23T03:59:08.419Z,24.02
2022-12-23T04:01:47.858Z,26.60
2022-12-23T04:04:19.210Z,27.30
2022-12-23T04:06:57.389Z,23.52
2022-12-23T04:09:27.822Z,22.00
2022-12-23T04:11:58.463Z,26.67
2022-12-23T04:14:26.407Z,28.63
2022-12-23T04:16:56.713Z,30.73
2022-12-23T04:19:25.262Z,27.83
2022-12-23T04:21:56.933Z,32.47
2022-12-23T04:24:24.793Z,25.17
2022-12-23T04:26:52.618Z,27.67
2022-12-23T04:29:20.458Z,26.95
2022-12-23T04:31:48.322Z,27.73
2022-12-23T04:34:16.407Z,26.10
2022-12-23T04:36:44.167Z,30.52
2022-12-23T04:39:11.984Z,29.17
2022-12-23T04:41:39.843Z,27.88
2022-12-23T04:44:08.884Z,31.73
2022-12-23T04:46:36.792Z,27.48
2022-12-23T04:49:04.797Z,26.98
2022-12-23T04:51:32.764Z,30.98
2022-12-23T04:54:00.657Z,22.52
2022-12-23T04:56:28.495Z,23.33
2022-12-23T04:58:56.373Z,18.75
2022-12-23T05:01:24.250Z,21.67
2022-12-23T05:03:52.045Z,24.02
2022-12-23T05:06:19.837Z,23.15
2022-12-23T05:08:47.676Z,20.52
2022-12-23T05:11:15.396Z,19.10
2022-12-23T05:13:43.316Z,23.73
2022-12-23T05:16:11.172Z,26.88
2022-12-23T05:18:39.081Z,20.13
2022-12-23T05:21:06.904Z,22.38
2022-12-23T05:23:34.707Z,23.23
2022-12-23T05:26:02.468Z,21.90
2022-12-23T05:28:30.587Z,21.88
2022-12-23T05:31:04.127Z,21.05
2022-12-23T05:33:32.940Z,19.52
2022-12-23T05:36:04.659Z,20.05
2022-12-23T05:38:32.634Z,21.05
2022-12-23T05:41:00.599Z,24.73
2022-12-23T05:43:28.705Z,26.70
2022-12-23T05:45:56.584Z,21.63
2022-12-23T05:48:24.886Z,20.75
2022-12-23T05:50:54.046Z,21.95
2022-12-23T05:53:24.760Z,23.15
2022-12-23T05:55:53.086Z,24.10
2022-12-23T05:58:20.868Z,20.52
2022-12-23T06:00:48.819Z,20.55
2022-12-23T06:03:17.137Z,25.15
2022-12-23T06:05:45.210Z,24.08
2022-12-23T06:08:13.212Z,23.10
2022-12-23T06:10:41.182Z,21.65
2022-12-23T06:13:09.533Z,25.90
2022-12-23T06:15:37.437Z,22.33
2022-12-23T06:18:05.435Z,21.92
2022-12-23T06:20:33.273Z,22.10
2022-12-23T06:23:01.197Z,21.42
2022-12-23T06:25:29.313Z,20.63
2022-12-23T06:27:57.169Z,25.80
2022-12-23T06:30:25.352Z,20.60
2022-12-23T06:32:53.313Z,19.55
2022-12-23T06:35:21.074Z,28.80
2022-12-23T06:37:48.970Z,22.63
2022-12-23T06:40:16.882Z,21.70
2022-12-23T06:42:44.805Z,23.80
2022-12-23T06:45:13.480Z,24.55
2022-12-23T06:47:41.377Z,23.67
2022-12-23T06:50:09.675Z,17.50
2022-12-23T06:52:37.666Z,25.92
2022-12-23T06:55:08.891Z,21.25
2022-12-23T06:57:36.868Z,24.63
2022-12-23T07:00:05.372Z,21.60
2022-12-23T07:02:33.420Z,20.90
2022-12-23T07:05:01.379Z,25.42
2022-12-23T07:07:29.310Z,29.50
2022-12-23T07:09:57.215Z,20.05
2022-12-23T07:12:25.056Z,24.27
2022-12-23T07:14:52.917Z,24.13
2022-12-23T07:17:20.806Z,22.63
2022-12-23T07:19:48.660Z,20.60
2022-12-23T07:22:16.456Z,20.90
2022-12-23T07:24:44.317Z,21.27
2022-12-23T07:27:12.217Z,23.33
2022-12-23T07:29:40.076Z,23.83
2022-12-23T07:32:08.345Z,26.10
2022-12-23T07:34:36.646Z,28.17
2022-12-23T07:37:04.650Z,27.70
2022-12-23T07:39:32.531Z,33.22
2022-12-23T07:42:24.915Z,36.83
2022-12-23T07:44:48.320Z,45.88
2022-12-23T07:47:16.137Z,29.15
2022-12-23T07:49:43.975Z,30.10
2022-12-23T07:52:11.806Z,27.85
2022-12-23T07:54:39.729Z,35.45
2022-12-23T07:57:07.582Z,29.55
2022-12-23T07:59:36.069Z,25.38
2022-12-23T08:02:04.103Z,29.23
2022-12-23T08:04:32.007Z,24.23
2022-12-23T08:06:59.890Z,27.15
2022-12-23T08:09:27.619Z,25.58
2022-12-23T08:11:55.505Z,27.60
2022-12-23T08:14:23.531Z,26.67
2022-12-23T08:16:51.441Z,28.38
2022-12-23T08:19:19.371Z,21.85
2022-12-23T08:21:47.208Z,32.83
2022-12-23T08:24:15.119Z,26.38
2022-12-23T08:26:42.974Z,30.65
2022-12-23T08:29:10.938Z,25.92
2022-12-23T08:31:38.911Z,28.27
2022-12-23T08:34:06.835Z,25.63
2022-12-23T08:36:35.880Z,24.95
2022-12-23T08:39:07.898Z,29.13
2022-12-23T08:41:42.800Z,28.38
2022-12-23T08:44:11.300Z,25.70
2022-12-23T08:46:39.781Z,29.02
2022-12-23T08:49:08.123Z,24.85
2022-12-23T08:51:36.538Z,25.63
2022-12-23T08:54:05.117Z,22.52
2022-12-23T08:56:36.131Z,22.33
2022-12-23T08:59:04.690Z,20.65
2022-12-23T09:01:34.442Z,28.23
2022-12-23T09:04:06.009Z,24.70
2022-12-23T09:06:37.789Z,20.52
2022-12-23T09:09:06.423Z,26.45
2022-12-23T09:11:35.243Z,22.55
2022-12-23T09:14:03.982Z,27.90
2022-12-23T09:16:32.044Z,24.00
2022-12-23T09:19:01.070Z,25.20
2022-12-23T09:21:29.634Z,21.08
2022-12-23T09:23:57.467Z,23.50
2022-12-23T09:26:28.983Z,26.20
2022-12-23T09:28:57.371Z,27.83
2022-12-23T09:31:30.488Z,25.90
2022-12-23T09:34:02.085Z,23.85
2022-12-23T09:36:30.160Z,26.98
2022-12-23T09:38:58.887Z,30.77
2022-12-23T09:41:35.032Z,33.05
2022-12-23T09:44:06.592Z,32.75
2022-12-23T09:46:38.441Z,28.58
2022-12-23T09:49:12.740Z,30.90
2022-12-23T09:51:40.823Z,34.22
2022-12-23T09:54:22.577Z,27.10
2022-12-23T09:57:31.984Z,28.17
2022-12-23T10:00:07.156Z,38.05
2022-12-23T10:02:59.812Z,26.67
2022-12-23T10:05:35.607Z,32.15
2022-12-23T10:08:12.793Z,33.10
2022-12-23T10:11:15.698Z,33.22
2022-12-23T10:13:50.558Z,35.13
2022-12-23T10:16:26.011Z,37.13
2022-12-23T10:18:59.631Z,38.65
2022-12-23T10:21:33.132Z,38.90
2022-12-23T10:24:11.286Z,38.47
2022-12-23T10:26:52.946Z,36.03
2022-12-23T10:29:23.252Z,31.77
2022-12-23T10:32:23.328Z,30.83
2022-12-23T10:35:08.285Z,32.88
2022-12-23T10:37:55.384Z,35.95
2022-12-23T10:40:50.075Z,37.83
2022-12-23T10:43:20.630Z,41.97
2022-12-23T10:46:15.958Z,38.63
2022-12-23T10:48:52.692Z,39.38
2022-12-23T10:51:26.965Z,39.72
2022-12-23T10:54:00.738Z,37.17
2022-12-23T10:56:32.097Z,38.22
2022-12-23T10:59:01.429Z,35.63
2022-12-23T11:01:31.569Z,36.30
2022-12-23T11:04:14.995Z,34.53
2022-12-23T11:07:18.154Z,37.80
2022-12-23T11:09:48.327Z,43.03
2022-12-23T11:12:16.177Z,38.47
2022-12-23T11:14:56.887Z,38.80
2022-12-23T11:17:30.715Z,36.22
2022-12-23T11:22:35.464Z,38.78
2022-12-23T11:25:39.258Z,37.13
2022-12-23T11:28:17.251Z,36.60
2022-12-23T11:30:55.928Z,39.22
2022-12-23T11:33:34.421Z,40.05
2022-12-23T11:36:13.042Z,47.53
2022-12-23T11:39:06.896Z,34.00
2022-12-23T11:41:42.787Z,40.50
2022-12-23T11:44:38.742Z,40.17
2022-12-23T11:47:25.332Z,37.78
2022-12-23T11:50:03.183Z,33.50
2022-12-23T11:52:32.799Z,33.80
2022-12-23T11:55:05.812Z,35.30
2022-12-23T11:57:43.743Z,39.00
2022-12-23T12:00:42.528Z,35.70
2022-12-23T12:03:19.277Z,40.10
2022-12-23T12:05:52.937Z,30.92
2022-12-23T12:08:25.890Z,36.90
2022-12-23T12:11:00.993Z,31.17
2022-12-23T12:13:32.691Z,39.80
2022-12-23T12:16:18.904Z,33.83
2022-12-23T12:18:53.678Z,36.03
2022-12-23T12:21:30.706Z,35.90
2022-12-23T12:24:19.327Z,34.65
2022-12-23T12:26:54.685Z,32.28
2022-12-23T12:29:53.610Z,32.83
2022-12-23T12:32:44.499Z,31.85
2022-12-23T12:35:19.888Z,29.83
2022-12-23T12:37:57.122Z,31.00
2022-12-23T12:40:34.383Z,35.63
2022-12-23T12:43:25.707Z,30.25
2022-12-23T12:46:21.594Z,29.27
2022-12-23T12:48:54.742Z,29.83
2022-12-23T12:51:31.900Z,25.38
2022-12-23T12:54:28.109Z,31.27
2022-12-23T12:56:58.229Z,29.15
2022-12-23T12:59:29.477Z,32.50
2022-12-23T13:02:06.455Z,30.55
2022-12-23T13:05:11.940Z,30.88
2022-12-23T13:08:04.139Z,29.17
2022-12-23T13:10:53.903Z,32.03
2022-12-23T13:13:33.800Z,29.45
2022-12-23T13:16:16.960Z,28.35
2022-12-23T13:18:50.723Z,30.05
2022-12-23T13:21:23.422Z,27.52
2022-12-23T13:24:13.451Z,28.25
2022-12-23T13:27:20.506Z,29.88
2022-12-23T13:30:02.842Z,26.60
2022-12-23T13:32:59.937Z,30.33
2022-12-23T13:35:49.381Z,32.72
2022-12-23T13:38:59.215Z,27.80
2022-12-23T13:41:39.565Z,31.60
2022-12-23T13:44:13.719Z,29.67
2022-12-23T13:47:18.887Z,30.70
2022-12-23T13:52:36.335Z,29.92
2022-12-23T13:55:43.288Z,29.58
2022-12-23T13:58:18.757Z,32.40
2022-12-23T14:00:46.808Z,40.38
2022-12-23T14:03:23.434Z,41.17
2022-12-23T14:05:54.045Z,41.17
2022-12-23T14:08:42.358Z,41.50
2022-12-23T14:11:26.619Z,41.92
2022-12-23T14:14:00.769Z,38.85
2022-12-23T14:19:19.152Z,46.45
2022-12-23T14:22:06.175Z,42.63
2022-12-23T14:24:48.477Z,47.50
2022-12-23T14:27:25.474Z,38.00
2022-12-23T14:30:06.611Z,42.97
2022-12-23T14:33:02.039Z,43.08
2022-12-23T14:35:38.482Z,43.60
2022-12-23T14:38:15.986Z,44.33
2022-12-23T14:40:44.149Z,43.10
2022-12-23T14:43:33.305Z,41.58
2022-12-23T14:46:07.027Z,48.75
2022-12-23T14:48:48.129Z,42.38
2022-12-23T14:51:31.711Z,47.38
2022-12-23T14:53:59.658Z,47.00
2022-12-23T14:56:39.735Z,40.63
2022-12-23T14:59:40.499Z,45.65
2022-12-23T15:02:23.590Z,47.75
2022-12-23T15:04:58.993Z,45.78
2022-12-23T15:07:29.748Z,47.03
2022-12-23T15:10:01.597Z,51.65
2022-12-23T15:12:37.548Z,45.83
2022-12-23T15:15:13.364Z,51.60
2022-12-23T15:17:41.471Z,54.58
2022-12-23T15:20:24.550Z,50.72
2022-12-23T15:22:52.848Z,49.90
2022-12-23T15:25:25.759Z,53.25
2022-12-23T15:28:01.569Z,54.50
2022-12-23T15:30:35.693Z,50.08
2022-12-23T15:33:27.745Z,53.47
2022-12-23T15:35:54.913Z,60.13
2022-12-23T15:38:27.829Z,53.60
2022-12-23T15:41:13.645Z,58.78
2022-12-23T15:43:42.817Z,47.75
2022-12-23T15:46:20.770Z,56.25
2022-12-23T15:48:52.723Z,52.58
2022-12-23T15:54:34.747Z,55.58
2022-12-23T15:57:04.708Z,56.03
2022-12-23T15:59:40.328Z,52.00
2022-12-23T16:05:30.727Z,50.80
2022-12-23T16:08:14.108Z,54.22
2022-12-23T16:11:02.667Z,53.95
2022-12-23T16:13:33.705Z,58.67
2022-12-23T16:16:38.328Z,52.05
2022-12-23T16:19:26.819Z,58.15
2022-12-23T16:21:54.832Z,60.42
2022-12-23T16:24:22.711Z,65.28
2022-12-23T16:26:50.703Z,68.72
2022-12-23T16:29:18.570Z,61.30
2022-12-23T16:31:54.315Z,55.97
2022-12-23T16:34:25.502Z,54.92
2022-12-23T16:36:53.493Z,58.47
2022-12-23T16:39:23.214Z,68.07
2022-12-23T16:41:51.700Z,71.05
2022-12-23T16:44:20.501Z,77.10
2022-12-23T16:46:51.359Z,71.47
2022-12-23T16:49:21.533Z,77.03
2022-12-23T16:51:49.329Z,74.65
2022-12-23T16:54:20.784Z,70.82
2022-12-23T16:56:50.074Z,65.88
2022-12-23T16:59:18.139Z,74.28
2022-12-23T17:01:48.416Z,63.20
2022-12-23T17:04:16.479Z,64.57
2022-12-23T17:06:46.890Z,55.58
2022-12-23T17:09:14.880Z,64.43
2022-12-23T17:11:45.942Z,65.50
2022-12-23T17:14:20.059Z,61.78
2022-12-23T17:19:19.159Z,56.95
2022-12-23T17:21:55.843Z,53.75
2022-12-23T17:24:25.971Z,62.03
2022-12-23T17:26:55.453Z,62.95
2022-12-23T17:29:23.589Z,63.95
2022-12-23T17:31:51.911Z,67.47
2022-12-23T17:34:23.221Z,72.45
2022-12-23T17:36:51.697Z,63.85
2022-12-23T17:39:22.150Z,67.93
2022-12-23T17:41:50.315Z,63.97
2022-12-23T17:44:18.841Z,50.38
2022-12-23T17:46:47.442Z,54.40
2022-12-23T17:49:15.447Z,55.35
2022-12-23T17:51:43.591Z,64.25
2022-12-23T17:54:21.739Z,49.67
2022-12-23T17:56:50.162Z,51.47
2022-12-23T17:59:18.194Z,58.63
2022-12-23T18:01:46.297Z,50.42
2022-12-23T18:04:14.294Z,54.67
2022-12-23T18:06:42.251Z,50.08
2022-12-23T18:09:10.152Z,53.88
2022-12-23T18:11:44.670Z,51.63
2022-12-23T18:14:23.017Z,48.22
2022-12-23T18:16:51.109Z,44.55
2022-12-23T18:19:21.455Z,47.53
2022-12-23T18:21:50.134Z,51.95
2022-12-23T18:24:18.491Z,55.83
2022-12-23T18:26:47.788Z,59.15
2022-12-23T18:29:15.744Z,56.20
2022-12-23T18:31:51.646Z,48.35
2022-12-23T18:34:21.307Z,56.03
2022-12-23T18:36:51.831Z,53.45
2022-12-23T18:39:20.675Z,55.55
2022-12-23T18:41:49.037Z,54.38
2022-12-23T18:44:21.314Z,54.08
2022-12-23T18:46:50.361Z,56.72
2022-12-23T18:49:18.556Z,53.38
2022-12-23T18:51:46.886Z,55.25
2022-12-23T18:54:16.121Z,49.92
2022-12-23T18:56:44.608Z,54.72
2022-12-23T18:59:16.985Z,55.38
2022-12-23T19:01:44.993Z,50.45
2022-12-23T19:04:13.364Z,51.38
2022-12-23T19:06:41.534Z,52.65
2022-12-23T19:09:16.371Z,50.15
2022-12-23T19:11:47.627Z,50.35
2022-12-23T19:14:15.635Z,54.83
2022-12-23T19:16:49.270Z,49.90
2022-12-23T19:19:19.446Z,53.55
2022-12-23T19:21:47.332Z,47.17
2022-12-23T19:24:15.371Z,53.15
2022-12-23T19:26:43.462Z,55.25
2022-12-23T19:29:11.499Z,48.30
2022-12-23T19:31:39.955Z,47.22
2022-12-23T19:34:12.854Z,50.70
2022-12-23T19:36:43.652Z,52.35
2022-12-23T19:39:16.525Z,40.00
2022-12-23T19:41:45.737Z,41.47
2022-12-23T19:44:14.604Z,50.60
2022-12-23T19:46:42.987Z,47.88
2022-12-23T19:49:15.941Z,46.05
2022-12-23T19:51:48.709Z,79.85
2022-12-23T19:54:17.819Z,53.45
2022-12-23T19:56:46.430Z,52.47
2022-12-23T19:59:14.511Z,43.78
2022-12-23T20:01:42.617Z,49.80
2022-12-23T20:04:11.230Z,48.72
2022-12-23T20:06:41.213Z,51.17
2022-12-23T20:09:11.574Z,45.10
2022-12-23T20:11:43.146Z,49.03
2022-12-23T20:14:11.868Z,45.88
2022-12-23T20:16:40.663Z,57.67
2022-12-23T20:19:08.698Z,57.20
2022-12-23T20:21:39.134Z,52.60
2022-12-23T20:24:07.953Z,60.85
2022-12-23T20:26:35.869Z,55.58
2022-12-23T20:29:03.778Z,53.33
2022-12-23T20:31:34.262Z,47.22
2022-12-23T20:34:02.615Z,59.20
2022-12-23T20:36:33.400Z,46.92
2022-12-23T20:39:03.621Z,53.85
2022-12-23T20:41:32.336Z,47.75
2022-12-23T20:44:32.963Z,48.97
2022-12-23T20:46:48.683Z,50.85
2022-12-23T20:49:16.687Z,50.92
2022-12-23T20:51:44.603Z,85.78
2022-12-23T20:54:13.134Z,79.13
2022-12-23T20:56:40.996Z,60.20
2022-12-23T20:59:08.961Z,53.85
2022-12-23T21:01:39.502Z,52.90
2022-12-23T21:04:14.354Z,52.30
2022-12-23T21:06:43.263Z,47.65
2022-12-23T21:09:13.851Z,50.55
2022-12-23T21:11:44.607Z,45.10
2022-12-23T21:14:13.980Z,47.88
2022-12-23T21:16:42.648Z,46.28
2022-12-23T21:19:16.786Z,48.03
2022-12-23T21:21:45.895Z,46.25
2022-12-23T21:24:14.453Z,47.00
2022-12-23T21:26:42.767Z,57.30
2022-12-23T21:29:11.115Z,45.70
2022-12-23T21:31:41.206Z,51.47
2022-12-23T21:34:14.352Z,48.13
2022-12-23T21:36:43.915Z,48.35
2022-12-23T21:39:15.414Z,54.08
2022-12-23T21:41:43.834Z,50.90
2022-12-23T21:44:15.932Z,55.00
2022-12-23T21:46:44.071Z,53.53
2022-12-23T21:49:12.118Z,46.63
2022-12-23T21:51:42.782Z,45.97
2022-12-23T21:54:12.034Z,52.50
2022-12-23T21:56:41.392Z,54.67
2022-12-23T21:59:13.518Z,45.13
2022-12-23T22:01:42.929Z,46.55
2022-12-23T22:05:00.865Z,49.65
2022-12-23T22:07:28.894Z,46.83
2022-12-23T22:09:56.665Z,46.50
2022-12-23T22:12:24.491Z,50.25
2022-12-23T22:14:52.167Z,51.22
2022-12-23T22:17:20.120Z,46.72
2022-12-23T22:19:47.966Z,44.30
2022-12-23T22:22:16.149Z,53.80
2022-12-23T22:24:44.046Z,45.63
2022-12-23T22:27:11.802Z,45.20
2022-12-23T22:29:39.687Z,55.55
2022-12-23T22:32:07.450Z,46.47
2022-12-23T22:34:35.169Z,45.72
2022-12-23T22:37:03.009Z,52.10
2022-12-23T22:39:30.724Z,48.42
2022-12-23T22:41:58.531Z,47.35
2022-12-23T22:44:26.284Z,49.17
2022-12-23T22:46:54.223Z,49.22
2022-12-23T22:49:22.103Z,50.00
2022-12-23T22:51:49.802Z,48.13
2022-12-23T22:54:17.689Z,51.45
2022-12-23T22:56:46.079Z,54.00
2022-12-23T22:59:32.046Z,51.03
2022-12-23T23:01:59.914Z,53.90
2022-12-23T23:04:27.765Z,55.83
2022-12-23T23:06:55.618Z,53.35
2022-12-23T23:09:23.498Z,55.30
2022-12-23T23:11:51.458Z,53.67
2022-12-23T23:14:20.395Z,54.55
2022-12-23T23:16:48.625Z,52.95
2022-12-23T23:19:20.427Z,57.75
2022-12-23T23:21:49.044Z,55.70
2022-12-23T23:24:16.632Z,55.75
2022-12-23T23:26:44.495Z,55.83
2022-12-23T23:29:12.178Z,60.33
2022-12-23T23:31:42.513Z,57.55
2022-12-23T23:34:12.164Z,58.13
2022-12-23T23:36:40.678Z,63.15
2022-12-23T23:39:09.147Z,58.42
2022-12-23T23:41:36.904Z,60.10
2022-12-23T23:44:05.348Z,59.70
2022-12-23T23:46:33.896Z,57.42
2022-12-23T23:49:01.886Z,67.10
2022-12-23T23:51:29.646Z,57.08
2022-12-23T23:53:57.327Z,59.95
2022-12-23T23:56:26.384Z,56.42
2022-12-23T23:58:56.129Z,56.33
